HYT9095 ZWWW-ZPPP
Flight info
| Callsign | HYT9095 |
|---|---|
| Flight time | N/A |
| Altitude | 33100 |
| Route | WUR W190 ADPET W188 DAKPA W189 AKLAS W192 ESDEX W191 MOVBI/K0843S1070 W191 DNC W565 BIGUX B330 SAMIV/K0852S1100 W30 MEBNA MEBNA2B |
| Aircraft | B752/M-SDE2E3FGHIJ3J4J7RWXY/LB1 |
Departure
| Time | 2026-04-24 00:45 |
|---|---|
| Airport | Ürümqi Tianshan International Airport (ZWWW) |
Arrival
| Time | N/A |
|---|---|
| Airport | Kunming Changshui International Airport (ZPPP) |
| Time | Latitude | Longitude | Altitude | Speed | Heading |
|---|---|---|---|---|---|
| 2026-04-24 00:18 | 43.91864 | 87.46919 | 2140 ft | 0 kts | 165° |
| 2026-04-24 00:29 | 43.91866 | 87.46918 | 2140 ft | 2 kts | 165° |
| 2026-04-24 00:29 | 43.91881 | 87.46912 | 2141 ft | 2 kts | 165° |
| 2026-04-24 00:30 | 43.91895 | 87.46907 | 2141 ft | 2 kts | 165° |
| 2026-04-24 00:30 | 43.91910 | 87.46902 | 2142 ft | 2 kts | 165° |
| 2026-04-24 00:30 | 43.91924 | 87.46896 | 2141 ft | 2 kts | 165° |
| 2026-04-24 00:30 | 43.91938 | 87.46892 | 2140 ft | 0 kts | 165° |
| 2026-04-24 00:31 | 43.91947 | 87.46886 | 2140 ft | 2 kts | 133° |
| 2026-04-24 00:31 | 43.91952 | 87.46869 | 2139 ft | 1 kts | 83° |
| 2026-04-24 00:31 | 43.91951 | 87.46862 | 2139 ft | 1 kts | 73° |
| 2026-04-24 00:31 | 43.91950 | 87.46859 | 2139 ft | 0 kts | 75° |
| 2026-04-24 00:39 | 43.91959 | 87.46905 | 2139 ft | 9 kts | 75° |
| 2026-04-24 00:39 | 43.92033 | 87.46991 | 2139 ft | 19 kts | 31° |
| 2026-04-24 00:39 | 43.92097 | 87.47156 | 2139 ft | 17 kts | 71° |
| 2026-04-24 00:39 | 43.92113 | 87.47222 | 2139 ft | 12 kts | 71° |
| 2026-04-24 00:40 | 43.92129 | 87.47297 | 2139 ft | 1 kts | 100° |
| 2026-04-24 00:40 | 43.92150 | 87.47396 | 2139 ft | 9 kts | 72° |
| 2026-04-24 00:40 | 43.92171 | 87.47488 | 2139 ft | 10 kts | 72° |
| 2026-04-24 00:40 | 43.92190 | 87.47582 | 2139 ft | 10 kts | 73° |
| 2026-04-24 00:41 | 43.92210 | 87.47676 | 2139 ft | 10 kts | 72° |
| 2026-04-24 00:41 | 43.92231 | 87.47772 | 2139 ft | 10 kts | 73° |
| 2026-04-24 00:41 | 43.92254 | 87.47878 | 2139 ft | 14 kts | 73° |
| 2026-04-24 00:41 | 43.92285 | 87.48025 | 2139 ft | 11 kts | 71° |
| 2026-04-24 00:42 | 43.92326 | 87.48219 | 2139 ft | 23 kts | 72° |
| 2026-04-24 00:42 | 43.92371 | 87.48433 | 2139 ft | 23 kts | 73° |
| 2026-04-24 00:42 | 43.92417 | 87.48648 | 2139 ft | 22 kts | 73° |
| 2026-04-24 00:42 | 43.92462 | 87.48856 | 2139 ft | 22 kts | 73° |
| 2026-04-24 00:43 | 43.92505 | 87.49065 | 2139 ft | 22 kts | 73° |
| 2026-04-24 00:43 | 43.92551 | 87.49268 | 2139 ft | 21 kts | 73° |
| 2026-04-24 00:43 | 43.92585 | 87.49416 | 2139 ft | 13 kts | 62° |
| 2026-04-24 00:43 | 43.92661 | 87.49445 | 2139 ft | 12 kts | 352° |
| 2026-04-24 00:44 | 43.92724 | 87.49427 | 2138 ft | 0 kts | 342° |
| 2026-04-24 00:44 | 43.92726 | 87.49426 | 2138 ft | 1 kts | 342° |
| 2026-04-24 00:44 | 43.92785 | 87.49400 | 2138 ft | 14 kts | 342° |
| 2026-04-24 00:44 | 43.92825 | 87.49297 | 2138 ft | 14 kts | 256° |
| 2026-04-24 00:45 | 43.92765 | 87.49016 | 2139 ft | 62 kts | 253° |
| 2026-04-24 00:45 | 43.92567 | 87.48097 | 2140 ft | 133 kts | 255° |
| 2026-04-24 00:45 | 43.92238 | 87.46654 | 2275 ft | 176 kts | 256° |
| 2026-04-24 00:45 | 43.91916 | 87.44943 | 2898 ft | 193 kts | 255° |
| 2026-04-24 00:46 | 43.91395 | 87.43143 | 3544 ft | 210 kts | 248° |
| 2026-04-24 00:46 | 43.90878 | 87.41145 | 3972 ft | 231 kts | 257° |
| 2026-04-24 00:46 | 43.90494 | 87.38890 | 4573 ft | 247 kts | 259° |
| 2026-04-24 00:46 | 43.90179 | 87.36551 | 5385 ft | 252 kts | 260° |
| 2026-04-24 00:47 | 43.89702 | 87.34215 | 6265 ft | 256 kts | 252° |
| 2026-04-24 00:47 | 43.89143 | 87.31853 | 7069 ft | 261 kts | 254° |
| 2026-04-24 00:47 | 43.88607 | 87.29460 | 7930 ft | 263 kts | 254° |
| 2026-04-24 00:47 | 43.88312 | 87.27000 | 8744 ft | 264 kts | 276° |
| 2026-04-24 00:48 | 43.88870 | 87.24646 | 9531 ft | 265 kts | 306° |
| 2026-04-24 00:48 | 43.90214 | 87.22955 | 10353 ft | 266 kts | 334° |
| 2026-04-24 00:48 | 43.91927 | 87.22047 | 11167 ft | 269 kts | 341° |
| 2026-04-24 00:48 | 43.93711 | 87.21208 | 11942 ft | 273 kts | 341° |
| 2026-04-24 00:49 | 43.95523 | 87.20394 | 12717 ft | 277 kts | 341° |
| 2026-04-24 00:49 | 43.97400 | 87.19578 | 13154 ft | 294 kts | 341° |
| 2026-04-24 00:49 | 43.99445 | 87.18706 | 13487 ft | 315 kts | 341° |
| 2026-04-24 00:49 | 44.01595 | 87.17799 | 13804 ft | 335 kts | 342° |
| 2026-04-24 00:50 | 44.03875 | 87.16844 | 14119 ft | 355 kts | 342° |
| 2026-04-24 00:50 | 44.06322 | 87.15822 | 14398 ft | 375 kts | 342° |
| 2026-04-24 00:50 | 44.08895 | 87.14872 | 14733 ft | 392 kts | 350° |
| 2026-04-24 00:50 | 44.11632 | 87.14792 | 15532 ft | 398 kts | 5° |
| 2026-04-24 00:51 | 44.14350 | 87.15675 | 16208 ft | 405 kts | 18° |
| 2026-04-24 00:51 | 44.16923 | 87.17310 | 16923 ft | 412 kts | 28° |
| 2026-04-24 00:51 | 44.19286 | 87.19623 | 17567 ft | 419 kts | 39° |
| 2026-04-24 00:51 | 44.21327 | 87.22533 | 18264 ft | 425 kts | 49° |
| 2026-04-24 00:52 | 44.23006 | 87.25980 | 18804 ft | 433 kts | 60° |
| 2026-04-24 00:52 | 44.24217 | 87.29795 | 19474 ft | 439 kts | 70° |
| 2026-04-24 00:52 | 44.24961 | 87.33907 | 19966 ft | 447 kts | 80° |
| 2026-04-24 00:52 | 44.25415 | 87.38247 | 20541 ft | 452 kts | 78° |
| 2026-04-24 00:53 | 44.26181 | 87.42474 | 21105 ft | 456 kts | 72° |
| 2026-04-24 00:53 | 44.27179 | 87.46682 | 21724 ft | 459 kts | 69° |
| 2026-04-24 00:53 | 44.28302 | 87.50909 | 22232 ft | 465 kts | 67° |
| 2026-04-24 00:53 | 44.29475 | 87.55059 | 22786 ft | 469 kts | 66° |
| 2026-04-24 00:54 | 44.30711 | 87.59299 | 23342 ft | 474 kts | 65° |
| 2026-04-24 00:54 | 44.32004 | 87.63555 | 23925 ft | 478 kts | 62° |
| 2026-04-24 00:54 | 44.33664 | 87.67602 | 24375 ft | 481 kts | 52° |
| 2026-04-24 00:54 | 44.35748 | 87.71184 | 24963 ft | 480 kts | 43° |
| 2026-04-24 00:55 | 44.38161 | 87.74386 | 25354 ft | 484 kts | 39° |
| 2026-04-24 00:55 | 44.40639 | 87.77558 | 25935 ft | 486 kts | 39° |
| 2026-04-24 00:55 | 44.43154 | 87.80772 | 26397 ft | 490 kts | 38° |
| 2026-04-24 00:55 | 44.45660 | 87.83968 | 26887 ft | 492 kts | 38° |
| 2026-04-24 00:56 | 44.48185 | 87.87191 | 27400 ft | 494 kts | 38° |
| 2026-04-24 00:56 | 44.50621 | 87.90623 | 27716 ft | 504 kts | 45° |
| 2026-04-24 00:56 | 44.52705 | 87.94630 | 28241 ft | 509 kts | 54° |
| 2026-04-24 00:56 | 44.54320 | 87.98981 | 28768 ft | 514 kts | 64° |
| 2026-04-24 00:57 | 44.55483 | 88.03745 | 29341 ft | 517 kts | 73° |
| 2026-04-24 00:57 | 44.56135 | 88.08707 | 29836 ft | 520 kts | 82° |
| 2026-04-24 00:57 | 44.55872 | 88.18823 | 30723 ft | 525 kts | 98° |
| 2026-04-24 00:58 | 44.55329 | 88.23804 | 31114 ft | 527 kts | 97° |
| 2026-04-24 00:58 | 44.54835 | 88.28890 | 31582 ft | 526 kts | 97° |
| 2026-04-24 00:58 | 44.54351 | 88.33961 | 32142 ft | 524 kts | 96° |
| 2026-04-24 00:58 | 44.53881 | 88.39017 | 32378 ft | 529 kts | 96° |
| 2026-04-24 00:59 | 44.53414 | 88.44057 | 32807 ft | 528 kts | 96° |
| 2026-04-24 00:59 | 44.52939 | 88.49211 | 33177 ft | 527 kts | 96° |
| 2026-04-24 00:59 | 44.52489 | 88.54237 | 33164 ft | 529 kts | 95° |
| 2026-04-24 01:00 | 44.51597 | 88.64404 | 33167 ft | 523 kts | 96° |
| 2026-04-24 01:00 | 44.50697 | 88.74548 | 33158 ft | 526 kts | 96° |
| 2026-04-24 01:01 | 44.49794 | 88.84638 | 33164 ft | 524 kts | 96° |
| 2026-04-24 01:01 | 44.48881 | 88.94739 | 33159 ft | 527 kts | 96° |
| 2026-04-24 01:02 | 44.47954 | 89.04877 | 33155 ft | 525 kts | 96° |
| 2026-04-24 01:02 | 44.47006 | 89.15002 | 33162 ft | 526 kts | 96° |
| 2026-04-24 01:03 | 44.46047 | 89.25122 | 33159 ft | 527 kts | 96° |
| 2026-04-24 01:03 | 44.45083 | 89.35191 | 33169 ft | 525 kts | 95° |
| 2026-04-24 01:04 | 44.44102 | 89.45340 | 33168 ft | 526 kts | 95° |
| 2026-04-24 01:04 | 44.43116 | 89.55463 | 33173 ft | 527 kts | 95° |
| 2026-04-24 01:05 | 44.42119 | 89.65562 | 33174 ft | 526 kts | 96° |
| 2026-04-24 01:05 | 44.40358 | 89.75507 | 33167 ft | 529 kts | 105° |
| 2026-04-24 01:06 | 44.38277 | 89.85303 | 33166 ft | 529 kts | 105° |
| 2026-04-24 01:06 | 44.36158 | 89.95107 | 33170 ft | 529 kts | 105° |
| 2026-04-24 01:07 | 44.34021 | 90.04914 | 33177 ft | 531 kts | 105° |
| 2026-04-24 01:07 | 44.31872 | 90.14713 | 33186 ft | 529 kts | 105° |
| 2026-04-24 01:08 | 44.29720 | 90.24479 | 33191 ft | 530 kts | 105° |
| 2026-04-24 01:08 | 44.27535 | 90.34348 | 33198 ft | 529 kts | 105° |
| 2026-04-24 01:09 | 44.25365 | 90.44101 | 33200 ft | 530 kts | 105° |
| 2026-04-24 01:09 | 44.23192 | 90.53832 | 33202 ft | 528 kts | 105° |
| 2026-04-24 01:10 | 44.21011 | 90.63547 | 33213 ft | 527 kts | 105° |
| 2026-04-24 01:10 | 44.18816 | 90.73289 | 33205 ft | 529 kts | 105° |
| 2026-04-24 01:11 | 44.16608 | 90.83033 | 33211 ft | 528 kts | 105° |
| 2026-04-24 01:11 | 44.14401 | 90.92737 | 33216 ft | 528 kts | 105° |
| 2026-04-24 01:12 | 44.12168 | 91.02505 | 33222 ft | 528 kts | 105° |
| 2026-04-24 01:12 | 44.09950 | 91.12178 | 33234 ft | 530 kts | 104° |
| 2026-04-24 01:13 | 44.07673 | 91.21901 | 33244 ft | 529 kts | 108° |
| 2026-04-24 01:13 | 44.04133 | 91.30850 | 33265 ft | 534 kts | 127° |
| 2026-04-24 01:14 | 43.98902 | 91.38070 | 33275 ft | 532 kts | 144° |
| 2026-04-24 01:14 | 43.92542 | 91.42984 | 33285 ft | 522 kts | 163° |
| 2026-04-24 01:15 | 43.85550 | 91.45254 | 33263 ft | 512 kts | 177° |
| 2026-04-24 01:15 | 43.78525 | 91.46645 | 33278 ft | 514 kts | 178° |
| 2026-04-24 01:16 | 43.71479 | 91.47966 | 33259 ft | 509 kts | 178° |
| 2026-04-24 01:16 | 43.64435 | 91.49250 | 33247 ft | 511 kts | 178° |
| 2026-04-24 01:17 | 43.57409 | 91.50520 | 33225 ft | 512 kts | 178° |
| 2026-04-24 01:17 | 43.50381 | 91.51790 | 33201 ft | 511 kts | 178° |
| 2026-04-24 01:18 | 43.43357 | 91.53023 | 33195 ft | 512 kts | 177° |
| 2026-04-24 01:18 | 43.36276 | 91.54326 | 33180 ft | 512 kts | 177° |
| 2026-04-24 01:19 | 43.29243 | 91.55605 | 33177 ft | 511 kts | 178° |
| 2026-04-24 01:19 | 43.22229 | 91.56873 | 33173 ft | 508 kts | 178° |
| 2026-04-24 01:20 | 43.15195 | 91.58137 | 33155 ft | 511 kts | 177° |
| 2026-04-24 01:20 | 43.08173 | 91.59399 | 33116 ft | 509 kts | 177° |
| 2026-04-24 01:21 | 43.01163 | 91.60655 | 33089 ft | 511 kts | 177° |
| 2026-04-24 01:21 | 42.94125 | 91.61913 | 33072 ft | 510 kts | 178° |
| 2026-04-24 01:22 | 42.87086 | 91.63168 | 33054 ft | 510 kts | 177° |
| 2026-04-24 01:22 | 42.80098 | 91.64412 | 33061 ft | 510 kts | 177° |
| 2026-04-24 01:23 | 42.73048 | 91.65663 | 33042 ft | 509 kts | 178° |
| 2026-04-24 01:23 | 42.66036 | 91.66905 | 33061 ft | 509 kts | 178° |
| 2026-04-24 01:24 | 42.59031 | 91.68143 | 33066 ft | 509 kts | 178° |
| 2026-04-24 01:24 | 42.52048 | 91.69376 | 33081 ft | 508 kts | 178° |
| 2026-04-24 01:25 | 42.45010 | 91.70641 | 33093 ft | 507 kts | 178° |
| 2026-04-24 01:25 | 42.38017 | 91.71895 | 33117 ft | 510 kts | 178° |
| 2026-04-24 01:26 | 42.31005 | 91.73154 | 33133 ft | 506 kts | 178° |
| 2026-04-24 01:26 | 42.24072 | 91.74393 | 33145 ft | 507 kts | 178° |
| 2026-04-24 01:27 | 42.17048 | 91.75653 | 33165 ft | 508 kts | 177° |
| 2026-04-24 01:27 | 42.10059 | 91.76907 | 33179 ft | 507 kts | 178° |
| 2026-04-24 01:28 | 42.03174 | 91.78128 | 33182 ft | 507 kts | 178° |
| 2026-04-24 01:28 | 41.96212 | 91.79362 | 33192 ft | 505 kts | 178° |
| 2026-04-24 01:29 | 41.89274 | 91.80586 | 33191 ft | 505 kts | 177° |
| 2026-04-24 01:29 | 41.82309 | 91.81814 | 33184 ft | 506 kts | 177° |
| 2026-04-24 01:30 | 41.75331 | 91.83040 | 33189 ft | 505 kts | 177° |
| 2026-04-24 01:30 | 41.68449 | 91.85183 | 33189 ft | 513 kts | 161° |
| 2026-04-24 01:31 | 41.62243 | 91.89913 | 33188 ft | 517 kts | 142° |
| 2026-04-24 01:31 | 41.57291 | 91.96899 | 33189 ft | 521 kts | 124° |
| 2026-04-24 01:32 | 41.53403 | 92.04977 | 33174 ft | 519 kts | 121° |
| 2026-04-24 01:32 | 41.49496 | 92.13090 | 33179 ft | 520 kts | 121° |
| 2026-04-24 01:33 | 41.45590 | 92.21171 | 33178 ft | 521 kts | 121° |
| 2026-04-24 01:33 | 41.41698 | 92.29195 | 33179 ft | 519 kts | 121° |
| 2026-04-24 01:34 | 41.37757 | 92.37298 | 33186 ft | 521 kts | 121° |
| 2026-04-24 01:34 | 41.33860 | 92.45289 | 33200 ft | 502 kts | 121° |
| 2026-04-24 01:34 | 41.32010 | 92.49075 | 33252 ft | 482 kts | 121° |
| 2026-04-24 01:35 | 41.30222 | 92.52729 | 33189 ft | 464 kts | 121° |
| 2026-04-24 01:35 | 41.28502 | 92.56244 | 33195 ft | 445 kts | 121° |
| 2026-04-24 01:35 | 41.26851 | 92.59611 | 33199 ft | 427 kts | 120° |
| 2026-04-24 01:35 | 41.25269 | 92.62834 | 33196 ft | 408 kts | 120° |
| 2026-04-24 01:36 | 41.23758 | 92.65914 | 33195 ft | 393 kts | 121° |
| 2026-04-24 01:36 | 41.20697 | 92.72144 | 33228 ft | 415 kts | 121° |
| 2026-04-24 01:37 | 41.17535 | 92.78552 | 33216 ft | 415 kts | 121° |
| 2026-04-24 01:37 | 41.14386 | 92.84927 | 33228 ft | 412 kts | 121° |
| 2026-04-24 01:38 | 41.11255 | 92.91248 | 33242 ft | 413 kts | 121° |
| 2026-04-24 01:38 | 41.08091 | 92.97627 | 33239 ft | 414 kts | 121° |
| 2026-04-24 01:39 | 41.04945 | 93.03955 | 33242 ft | 413 kts | 121° |
| 2026-04-24 01:39 | 41.01773 | 93.10323 | 33246 ft | 415 kts | 121° |
| 2026-04-24 01:40 | 40.98606 | 93.16666 | 33248 ft | 416 kts | 121° |
| 2026-04-24 01:40 | 40.95415 | 93.23043 | 33244 ft | 414 kts | 121° |
| 2026-04-24 01:41 | 40.92254 | 93.29346 | 33238 ft | 415 kts | 121° |
| 2026-04-24 01:41 | 40.89059 | 93.35709 | 33223 ft | 415 kts | 121° |
| 2026-04-24 01:42 | 40.85881 | 93.42019 | 33218 ft | 415 kts | 121° |
| 2026-04-24 01:42 | 40.82676 | 93.48377 | 33216 ft | 416 kts | 121° |
| 2026-04-24 01:43 | 40.79491 | 93.54676 | 33221 ft | 414 kts | 121° |
| 2026-04-24 01:43 | 40.76297 | 93.60979 | 33226 ft | 415 kts | 121° |
| 2026-04-24 01:44 | 40.72752 | 93.67014 | 33215 ft | 416 kts | 126° |
| 2026-04-24 01:44 | 40.69181 | 93.72969 | 33218 ft | 416 kts | 126° |
| 2026-04-24 01:45 | 40.65561 | 93.78975 | 33225 ft | 418 kts | 127° |
| 2026-04-24 01:45 | 40.61946 | 93.84954 | 33224 ft | 418 kts | 127° |
| 2026-04-24 01:46 | 40.58347 | 93.90897 | 33225 ft | 417 kts | 127° |
| 2026-04-24 01:46 | 40.54721 | 93.96872 | 33228 ft | 419 kts | 127° |
| 2026-04-24 01:47 | 40.51076 | 94.02866 | 33221 ft | 420 kts | 126° |
| 2026-04-24 01:47 | 40.47449 | 94.08820 | 33212 ft | 418 kts | 126° |
| 2026-04-24 01:48 | 40.43809 | 94.14786 | 33200 ft | 418 kts | 126° |
| 2026-04-24 01:48 | 40.40189 | 94.20702 | 33202 ft | 419 kts | 126° |
| 2026-04-24 01:49 | 40.36556 | 94.26633 | 33198 ft | 418 kts | 126° |
| 2026-04-24 01:49 | 40.32905 | 94.32581 | 33205 ft | 419 kts | 126° |
| 2026-04-24 01:50 | 40.29259 | 94.38507 | 33199 ft | 417 kts | 126° |
| 2026-04-24 01:50 | 40.25621 | 94.44411 | 33210 ft | 418 kts | 126° |
| 2026-04-24 01:51 | 40.21983 | 94.50304 | 33214 ft | 419 kts | 126° |
| 2026-04-24 01:51 | 40.18317 | 94.56232 | 33224 ft | 420 kts | 126° |
| 2026-04-24 01:52 | 40.14654 | 94.62141 | 33242 ft | 419 kts | 126° |
| 2026-04-24 01:52 | 40.11004 | 94.68044 | 33239 ft | 418 kts | 124° |
| 2026-04-24 01:52 | 40.09520 | 94.71262 | 33271 ft | 412 kts | 112° |
| 2026-04-24 01:53 | 40.08248 | 94.74644 | 33256 ft | 413 kts | 112° |
| 2026-04-24 01:53 | 40.05718 | 94.81342 | 33271 ft | 413 kts | 111° |
| 2026-04-24 01:54 | 40.03196 | 94.88039 | 33283 ft | 410 kts | 111° |
| 2026-04-24 01:54 | 40.00689 | 94.94690 | 33303 ft | 410 kts | 111° |
| 2026-04-24 01:55 | 39.98165 | 95.01378 | 33325 ft | 411 kts | 111° |
| 2026-04-24 01:55 | 39.95632 | 95.08073 | 33316 ft | 413 kts | 111° |
| 2026-04-24 01:56 | 39.93098 | 95.14777 | 33348 ft | 413 kts | 111° |
| 2026-04-24 01:56 | 39.90569 | 95.21457 | 33382 ft | 412 kts | 111° |
| 2026-04-24 01:57 | 39.88046 | 95.28102 | 33358 ft | 412 kts | 111° |
| 2026-04-24 01:57 | 39.85509 | 95.34773 | 33392 ft | 411 kts | 111° |
| 2026-04-24 01:58 | 39.82965 | 95.41441 | 33409 ft | 413 kts | 110° |
| 2026-04-24 01:58 | 39.80422 | 95.48102 | 33418 ft | 412 kts | 111° |
| 2026-04-24 01:59 | 39.77868 | 95.54765 | 33458 ft | 410 kts | 111° |
| 2026-04-24 01:59 | 39.75329 | 95.61383 | 33451 ft | 412 kts | 111° |
| 2026-04-24 02:00 | 39.72758 | 95.68065 | 33426 ft | 411 kts | 111° |
| 2026-04-24 02:00 | 39.70216 | 95.74657 | 33444 ft | 411 kts | 111° |
| 2026-04-24 02:01 | 39.67648 | 95.81305 | 33446 ft | 410 kts | 112° |
| 2026-04-24 02:01 | 39.65099 | 95.87888 | 33462 ft | 412 kts | 112° |
| 2026-04-24 02:02 | 39.62525 | 95.94519 | 33474 ft | 411 kts | 111° |
| 2026-04-24 02:02 | 39.59945 | 96.01151 | 33479 ft | 413 kts | 112° |
| 2026-04-24 02:03 | 39.56072 | 96.11075 | 33513 ft | 410 kts | 112° |
| 2026-04-24 02:03 | 39.53482 | 96.17656 | 33520 ft | 411 kts | 112° |
| 2026-04-24 02:04 | 39.50908 | 96.24178 | 33530 ft | 409 kts | 112° |
| 2026-04-24 02:04 | 39.48312 | 96.30748 | 33543 ft | 411 kts | 112° |
| 2026-04-24 02:05 | 39.45722 | 96.37283 | 33549 ft | 408 kts | 112° |
| 2026-04-24 02:05 | 39.43128 | 96.43815 | 33539 ft | 408 kts | 112° |
| 2026-04-24 02:06 | 39.40550 | 96.50293 | 33534 ft | 407 kts | 112° |
| 2026-04-24 02:06 | 39.37958 | 96.56795 | 33549 ft | 407 kts | 112° |
| 2026-04-24 02:07 | 39.35362 | 96.63289 | 33568 ft | 407 kts | 112° |
| 2026-04-24 02:07 | 39.32752 | 96.69807 | 33559 ft | 406 kts | 113° |
| 2026-04-24 02:08 | 39.30174 | 96.76229 | 33594 ft | 408 kts | 113° |
| 2026-04-24 02:08 | 39.27551 | 96.82752 | 33577 ft | 407 kts | 113° |
| 2026-04-24 02:09 | 39.24973 | 96.89249 | 33596 ft | 408 kts | 112° |
| 2026-04-24 02:09 | 39.22406 | 96.95743 | 33610 ft | 406 kts | 112° |
| 2026-04-24 02:10 | 39.19845 | 97.02211 | 33671 ft | 411 kts | 112° |
| 2026-04-24 02:10 | 39.17245 | 97.08758 | 33650 ft | 409 kts | 112° |
| 2026-04-24 02:11 | 39.14664 | 97.15239 | 33651 ft | 403 kts | 112° |
| 2026-04-24 02:11 | 39.12104 | 97.21668 | 33676 ft | 408 kts | 112° |
| 2026-04-24 02:12 | 39.09515 | 97.28144 | 33686 ft | 405 kts | 112° |
| 2026-04-24 02:12 | 39.06935 | 97.34589 | 33714 ft | 406 kts | 112° |
| 2026-04-24 02:13 | 39.04374 | 97.40971 | 33687 ft | 402 kts | 112° |
| 2026-04-24 02:13 | 39.01810 | 97.47347 | 33676 ft | 403 kts | 112° |
| 2026-04-24 02:14 | 38.99219 | 97.53780 | 33712 ft | 403 kts | 112° |
| 2026-04-24 02:14 | 38.96647 | 97.60148 | 33686 ft | 403 kts | 113° |
| 2026-04-24 02:15 | 38.94075 | 97.66507 | 33656 ft | 402 kts | 114° |
| 2026-04-24 02:15 | 38.91512 | 97.72817 | 33634 ft | 398 kts | 114° |
| 2026-04-24 02:16 | 38.88933 | 97.79156 | 33620 ft | 399 kts | 113° |
| 2026-04-24 02:16 | 38.86366 | 97.85451 | 33639 ft | 399 kts | 113° |
| 2026-04-24 02:17 | 38.83800 | 97.91731 | 33665 ft | 400 kts | 114° |
| 2026-04-24 02:17 | 38.81212 | 97.98055 | 33657 ft | 399 kts | 114° |
| 2026-04-24 02:18 | 38.78648 | 98.04302 | 33651 ft | 399 kts | 114° |
| 2026-04-24 02:18 | 38.76059 | 98.10599 | 33637 ft | 398 kts | 114° |
| 2026-04-24 02:19 | 38.73485 | 98.16849 | 33634 ft | 398 kts | 114° |
| 2026-04-24 02:19 | 38.70886 | 98.23149 | 33620 ft | 400 kts | 114° |
| 2026-04-24 02:20 | 38.68293 | 98.29414 | 33624 ft | 397 kts | 114° |
| 2026-04-24 02:20 | 38.65714 | 98.35638 | 33639 ft | 400 kts | 114° |
| 2026-04-24 02:21 | 38.63090 | 98.41957 | 33658 ft | 400 kts | 114° |
| 2026-04-24 02:21 | 38.60495 | 98.48193 | 33673 ft | 400 kts | 114° |
| 2026-04-24 02:22 | 38.57892 | 98.54439 | 33638 ft | 398 kts | 114° |
| 2026-04-24 02:22 | 38.55273 | 98.60708 | 33614 ft | 400 kts | 114° |
| 2026-04-24 02:23 | 38.52651 | 98.66971 | 33578 ft | 398 kts | 114° |
| 2026-04-24 02:23 | 38.50042 | 98.73195 | 33604 ft | 400 kts | 115° |
| 2026-04-24 02:24 | 38.47423 | 98.79424 | 33607 ft | 400 kts | 115° |
| 2026-04-24 02:24 | 38.44783 | 98.85693 | 33599 ft | 400 kts | 115° |
| 2026-04-24 02:25 | 38.42157 | 98.91919 | 33603 ft | 399 kts | 115° |
| 2026-04-24 02:25 | 38.39539 | 98.98109 | 33619 ft | 398 kts | 115° |
| 2026-04-24 02:26 | 38.36898 | 99.04343 | 33627 ft | 398 kts | 115° |
| 2026-04-24 02:26 | 38.34277 | 99.10520 | 33605 ft | 400 kts | 115° |
| 2026-04-24 02:27 | 38.31627 | 99.16751 | 33606 ft | 400 kts | 115° |
| 2026-04-24 02:27 | 38.28988 | 99.22945 | 33614 ft | 400 kts | 115° |
| 2026-04-24 02:28 | 38.26324 | 99.29183 | 33599 ft | 401 kts | 115° |
| 2026-04-24 02:28 | 38.23659 | 99.35412 | 33574 ft | 401 kts | 114° |
| 2026-04-24 02:29 | 38.21003 | 99.41608 | 33580 ft | 401 kts | 115° |
| 2026-04-24 02:29 | 38.18329 | 99.47834 | 33593 ft | 401 kts | 114° |
| 2026-04-24 02:30 | 38.15674 | 99.54003 | 33565 ft | 400 kts | 114° |
| 2026-04-24 02:30 | 38.12995 | 99.60219 | 33571 ft | 403 kts | 114° |
| 2026-04-24 02:31 | 38.10304 | 99.66448 | 33579 ft | 402 kts | 115° |
| 2026-04-24 02:31 | 38.07613 | 99.72663 | 33604 ft | 403 kts | 115° |
| 2026-04-24 02:32 | 38.04900 | 99.78920 | 33611 ft | 402 kts | 115° |
| 2026-04-24 02:32 | 38.02220 | 99.85089 | 33621 ft | 404 kts | 115° |
| 2026-04-24 02:33 | 37.99484 | 99.91372 | 33615 ft | 405 kts | 115° |
| 2026-04-24 02:33 | 37.96779 | 99.97569 | 33612 ft | 404 kts | 115° |
| 2026-04-24 02:34 | 37.94064 | 100.03783 | 33606 ft | 404 kts | 114° |
| 2026-04-24 02:34 | 37.91334 | 100.10017 | 33597 ft | 403 kts | 115° |
| 2026-04-24 02:35 | 37.88612 | 100.16219 | 33562 ft | 402 kts | 114° |
| 2026-04-24 02:35 | 37.85896 | 100.22399 | 33550 ft | 405 kts | 114° |
| 2026-04-24 02:36 | 37.83160 | 100.28610 | 33546 ft | 405 kts | 114° |
| 2026-04-24 02:36 | 37.80415 | 100.34829 | 33560 ft | 405 kts | 114° |
| 2026-04-24 02:37 | 37.77668 | 100.41039 | 33587 ft | 405 kts | 114° |
| 2026-04-24 02:37 | 37.74914 | 100.47258 | 33601 ft | 406 kts | 114° |
| 2026-04-24 02:38 | 37.72171 | 100.53436 | 33611 ft | 405 kts | 114° |
| 2026-04-24 02:38 | 37.69403 | 100.59660 | 33597 ft | 405 kts | 114° |
| 2026-04-24 02:39 | 37.66659 | 100.65816 | 33591 ft | 405 kts | 114° |
| 2026-04-24 02:39 | 37.63983 | 100.72048 | 33575 ft | 405 kts | 112° |
| 2026-04-24 02:40 | 37.61334 | 100.78357 | 33576 ft | 405 kts | 112° |
| 2026-04-24 02:40 | 37.58699 | 100.84613 | 33569 ft | 406 kts | 112° |
| 2026-04-24 02:41 | 37.56061 | 100.90861 | 33553 ft | 404 kts | 112° |
| 2026-04-24 02:41 | 37.53404 | 100.97150 | 33547 ft | 408 kts | 112° |
| 2026-04-24 02:42 | 37.50745 | 101.03420 | 33531 ft | 407 kts | 111° |
| 2026-04-24 02:42 | 37.48087 | 101.09681 | 33558 ft | 405 kts | 112° |
| 2026-04-24 02:43 | 37.45424 | 101.15940 | 33559 ft | 405 kts | 112° |
| 2026-04-24 02:43 | 37.42854 | 101.21972 | 33577 ft | 408 kts | 111° |
| 2026-04-24 02:44 | 37.40176 | 101.28243 | 33573 ft | 406 kts | 111° |
| 2026-04-24 02:44 | 37.37503 | 101.34494 | 33569 ft | 407 kts | 111° |
| 2026-04-24 02:45 | 37.34811 | 101.40771 | 33569 ft | 408 kts | 111° |
| 2026-04-24 02:45 | 37.32127 | 101.47021 | 33563 ft | 409 kts | 111° |
| 2026-04-24 02:46 | 37.29599 | 101.53362 | 33558 ft | 399 kts | 99° |
| 2026-04-24 02:46 | 37.28070 | 101.60006 | 33549 ft | 399 kts | 97° |
| 2026-04-24 02:47 | 37.26547 | 101.66647 | 33519 ft | 396 kts | 97° |
| 2026-04-24 02:47 | 37.25018 | 101.73321 | 33502 ft | 397 kts | 97° |
| 2026-04-24 02:48 | 37.23493 | 101.79961 | 33503 ft | 399 kts | 97° |
| 2026-04-24 02:48 | 37.21959 | 101.86620 | 33514 ft | 397 kts | 97° |
| 2026-04-24 02:49 | 37.20419 | 101.93284 | 33519 ft | 397 kts | 97° |
| 2026-04-24 02:49 | 37.18881 | 101.99928 | 33545 ft | 399 kts | 97° |
| 2026-04-24 02:50 | 37.17332 | 102.06591 | 33509 ft | 399 kts | 97° |
| 2026-04-24 02:50 | 37.15786 | 102.13233 | 33508 ft | 399 kts | 96° |
| 2026-04-24 02:51 | 37.14234 | 102.19872 | 33492 ft | 397 kts | 96° |
| 2026-04-24 02:51 | 37.12678 | 102.26523 | 33486 ft | 399 kts | 97° |
| 2026-04-24 02:52 | 37.10690 | 102.33069 | 33506 ft | 410 kts | 113° |
| 2026-04-24 02:52 | 37.07684 | 102.39180 | 33495 ft | 414 kts | 115° |
| 2026-04-24 02:53 | 37.04671 | 102.45247 | 33513 ft | 412 kts | 115° |
| 2026-04-24 02:53 | 37.01633 | 102.51341 | 33513 ft | 413 kts | 115° |
| 2026-04-24 02:54 | 36.98592 | 102.57421 | 33500 ft | 411 kts | 115° |
| 2026-04-24 02:54 | 36.95562 | 102.63473 | 33495 ft | 412 kts | 115° |
| 2026-04-24 02:55 | 36.92517 | 102.69537 | 33490 ft | 413 kts | 116° |
| 2026-04-24 02:55 | 36.89449 | 102.75638 | 33488 ft | 413 kts | 116° |
| 2026-04-24 02:56 | 36.86385 | 102.81722 | 33487 ft | 414 kts | 116° |
| 2026-04-24 02:56 | 36.83348 | 102.87735 | 33488 ft | 410 kts | 116° |
| 2026-04-24 02:57 | 36.80480 | 102.93873 | 33480 ft | 404 kts | 107° |
| 2026-04-24 02:57 | 36.78095 | 103.00233 | 33478 ft | 406 kts | 108° |
| 2026-04-24 02:58 | 36.75667 | 103.06544 | 33488 ft | 406 kts | 108° |
| 2026-04-24 02:58 | 36.73209 | 103.12894 | 33484 ft | 407 kts | 109° |
| 2026-04-24 02:59 | 36.70751 | 103.19219 | 33470 ft | 406 kts | 109° |
| 2026-04-24 02:59 | 36.68277 | 103.25575 | 33463 ft | 408 kts | 109° |
| 2026-04-24 03:00 | 36.65812 | 103.31892 | 33427 ft | 406 kts | 109° |
| 2026-04-24 03:00 | 36.63338 | 103.38223 | 33421 ft | 406 kts | 109° |
| 2026-04-24 03:01 | 36.60875 | 103.44511 | 33412 ft | 407 kts | 109° |
| 2026-04-24 03:01 | 36.58398 | 103.50821 | 33376 ft | 406 kts | 109° |
| 2026-04-24 03:02 | 36.55923 | 103.57116 | 33343 ft | 406 kts | 110° |
| 2026-04-24 03:02 | 36.53357 | 103.63372 | 33336 ft | 408 kts | 115° |
| 2026-04-24 03:03 | 36.50487 | 103.69504 | 33335 ft | 408 kts | 115° |
| 2026-04-24 03:03 | 36.47643 | 103.75588 | 33334 ft | 408 kts | 115° |
| 2026-04-24 03:04 | 36.44786 | 103.81688 | 33358 ft | 410 kts | 115° |
| 2026-04-24 03:04 | 36.41940 | 103.87753 | 33374 ft | 407 kts | 115° |
| 2026-04-24 03:05 | 36.39064 | 103.93869 | 33371 ft | 410 kts | 116° |
| 2026-04-24 03:05 | 36.36193 | 103.99961 | 33371 ft | 407 kts | 116° |
| 2026-04-24 03:06 | 36.33340 | 104.06006 | 33379 ft | 408 kts | 116° |
| 2026-04-24 03:06 | 36.30484 | 104.12051 | 33355 ft | 406 kts | 116° |
| 2026-04-24 03:07 | 36.27618 | 104.18108 | 33346 ft | 407 kts | 116° |
| 2026-04-24 03:07 | 36.24752 | 104.24153 | 33354 ft | 408 kts | 116° |
| 2026-04-24 03:08 | 36.19485 | 104.32307 | 33386 ft | 413 kts | 148° |
| 2026-04-24 03:08 | 36.16914 | 104.33855 | 33375 ft | 410 kts | 165° |
| 2026-04-24 03:09 | 36.14173 | 104.34545 | 33376 ft | 402 kts | 180° |
| 2026-04-24 03:09 | 36.08598 | 104.34776 | 33352 ft | 400 kts | 184° |
| 2026-04-24 03:10 | 36.03017 | 104.34907 | 33378 ft | 401 kts | 185° |
| 2026-04-24 03:10 | 35.97451 | 104.35009 | 33341 ft | 399 kts | 184° |
| 2026-04-24 03:11 | 35.91863 | 104.35104 | 33361 ft | 401 kts | 185° |
| 2026-04-24 03:11 | 35.86259 | 104.35199 | 33375 ft | 400 kts | 185° |
| 2026-04-24 03:12 | 35.80696 | 104.35289 | 33376 ft | 401 kts | 185° |
| 2026-04-24 03:12 | 35.75095 | 104.35379 | 33366 ft | 401 kts | 185° |
| 2026-04-24 03:13 | 35.69510 | 104.35468 | 33371 ft | 402 kts | 185° |
| 2026-04-24 03:13 | 35.63869 | 104.35558 | 33397 ft | 404 kts | 185° |
| 2026-04-24 03:14 | 35.58252 | 104.35647 | 33383 ft | 403 kts | 185° |
| 2026-04-24 03:14 | 35.52673 | 104.35735 | 33414 ft | 405 kts | 185° |
| 2026-04-24 03:15 | 35.47052 | 104.35826 | 33410 ft | 403 kts | 185° |
| 2026-04-24 03:15 | 35.41434 | 104.35915 | 33412 ft | 405 kts | 185° |
| 2026-04-24 03:16 | 35.35767 | 104.36006 | 33430 ft | 405 kts | 185° |
| 2026-04-24 03:16 | 35.30165 | 104.36095 | 33420 ft | 403 kts | 185° |
| 2026-04-24 03:17 | 35.24513 | 104.36185 | 33445 ft | 406 kts | 185° |
| 2026-04-24 03:17 | 35.18881 | 104.36276 | 33443 ft | 404 kts | 185° |
| 2026-04-24 03:18 | 35.13265 | 104.36365 | 33456 ft | 404 kts | 185° |
| 2026-04-24 03:18 | 35.07658 | 104.36453 | 33445 ft | 404 kts | 185° |
| 2026-04-24 03:19 | 35.01984 | 104.36543 | 33444 ft | 406 kts | 185° |
| 2026-04-24 03:19 | 34.96323 | 104.36633 | 33466 ft | 406 kts | 185° |
| 2026-04-24 03:20 | 34.90666 | 104.36723 | 33478 ft | 406 kts | 185° |
| 2026-04-24 03:20 | 34.85012 | 104.36812 | 33467 ft | 406 kts | 185° |
| 2026-04-24 03:21 | 34.79322 | 104.36900 | 33456 ft | 407 kts | 185° |
| 2026-04-24 03:21 | 34.73699 | 104.36990 | 33465 ft | 407 kts | 185° |
| 2026-04-24 03:22 | 34.68003 | 104.37080 | 33467 ft | 407 kts | 185° |
| 2026-04-24 03:22 | 34.62352 | 104.37167 | 33465 ft | 407 kts | 186° |
| 2026-04-24 03:23 | 34.56655 | 104.37257 | 33454 ft | 409 kts | 185° |
| 2026-04-24 03:23 | 34.50959 | 104.37347 | 33458 ft | 407 kts | 185° |
| 2026-04-24 03:24 | 34.45271 | 104.37435 | 33454 ft | 408 kts | 185° |
| 2026-04-24 03:24 | 34.39599 | 104.37524 | 33461 ft | 408 kts | 186° |
| 2026-04-24 03:25 | 34.33951 | 104.37612 | 33461 ft | 408 kts | 185° |
| 2026-04-24 03:25 | 34.28234 | 104.37701 | 33450 ft | 410 kts | 186° |
| 2026-04-24 03:26 | 34.22512 | 104.37791 | 33449 ft | 408 kts | 186° |
| 2026-04-24 03:26 | 34.16845 | 104.37878 | 33451 ft | 409 kts | 186° |
| 2026-04-24 03:27 | 34.11152 | 104.37966 | 33459 ft | 410 kts | 186° |
| 2026-04-24 03:27 | 34.05418 | 104.38055 | 33455 ft | 411 kts | 186° |
| 2026-04-24 03:28 | 33.99705 | 104.38143 | 33467 ft | 411 kts | 186° |
| 2026-04-24 03:28 | 33.93974 | 104.38232 | 33463 ft | 409 kts | 185° |
| 2026-04-24 03:29 | 33.88289 | 104.38320 | 33450 ft | 409 kts | 186° |
| 2026-04-24 03:29 | 33.82612 | 104.38407 | 33475 ft | 409 kts | 186° |
| 2026-04-24 03:30 | 33.76887 | 104.38494 | 33466 ft | 412 kts | 185° |
| 2026-04-24 03:30 | 33.71171 | 104.38584 | 33471 ft | 409 kts | 185° |
| 2026-04-24 03:31 | 33.65444 | 104.38671 | 33482 ft | 410 kts | 186° |
| 2026-04-24 03:31 | 33.59737 | 104.39545 | 33483 ft | 422 kts | 162° |
| 2026-04-24 03:31 | 33.57092 | 104.41097 | 33491 ft | 425 kts | 149° |
| 2026-04-24 03:32 | 33.54557 | 104.42915 | 33489 ft | 425 kts | 150° |
| 2026-04-24 03:32 | 33.49450 | 104.46561 | 33465 ft | 427 kts | 150° |
| 2026-04-24 03:33 | 33.44392 | 104.50182 | 33479 ft | 425 kts | 149° |
| 2026-04-24 03:33 | 33.39242 | 104.53721 | 33473 ft | 424 kts | 159° |
| 2026-04-24 03:33 | 33.36437 | 104.54730 | 33497 ft | 416 kts | 176° |
| 2026-04-24 03:34 | 33.33568 | 104.55063 | 33494 ft | 414 kts | 182° |
| 2026-04-24 03:34 | 33.27844 | 104.55501 | 33491 ft | 412 kts | 182° |
| 2026-04-24 03:35 | 33.22076 | 104.55888 | 33492 ft | 414 kts | 183° |
| 2026-04-24 03:35 | 33.16361 | 104.56259 | 33489 ft | 411 kts | 182° |
| 2026-04-24 03:36 | 33.10617 | 104.56624 | 33487 ft | 413 kts | 183° |
| 2026-04-24 03:36 | 33.04897 | 104.56988 | 33485 ft | 413 kts | 183° |
| 2026-04-24 03:37 | 32.99120 | 104.57357 | 33460 ft | 413 kts | 182° |
| 2026-04-24 03:37 | 32.93412 | 104.57719 | 33464 ft | 410 kts | 182° |
| 2026-04-24 03:38 | 32.87666 | 104.58082 | 33455 ft | 412 kts | 182° |
| 2026-04-24 03:38 | 32.81919 | 104.58445 | 33465 ft | 413 kts | 182° |
| 2026-04-24 03:39 | 32.76192 | 104.58805 | 33459 ft | 414 kts | 183° |
| 2026-04-24 03:39 | 32.70461 | 104.59067 | 33459 ft | 410 kts | 184° |
| 2026-04-24 03:40 | 32.64725 | 104.59321 | 33443 ft | 412 kts | 184° |
| 2026-04-24 03:40 | 32.58995 | 104.59576 | 33455 ft | 412 kts | 184° |
| 2026-04-24 03:41 | 32.53276 | 104.59837 | 33427 ft | 410 kts | 184° |
| 2026-04-24 03:41 | 32.47548 | 104.60098 | 33410 ft | 413 kts | 184° |
| 2026-04-24 03:42 | 32.41792 | 104.60363 | 33395 ft | 413 kts | 184° |
| 2026-04-24 03:42 | 32.36096 | 104.60667 | 33374 ft | 411 kts | 183° |
| 2026-04-24 03:43 | 32.30355 | 104.60980 | 33344 ft | 414 kts | 183° |
| 2026-04-24 03:43 | 32.24611 | 104.61296 | 33330 ft | 410 kts | 183° |
| 2026-04-24 03:44 | 32.18871 | 104.61608 | 33337 ft | 412 kts | 182° |
| 2026-04-24 03:44 | 32.13129 | 104.61922 | 33326 ft | 413 kts | 183° |
| 2026-04-24 03:45 | 32.07409 | 104.62234 | 33324 ft | 412 kts | 183° |
| 2026-04-24 03:45 | 32.01671 | 104.62547 | 33318 ft | 410 kts | 183° |
| 2026-04-24 03:46 | 31.95959 | 104.62858 | 33313 ft | 412 kts | 183° |
| 2026-04-24 03:46 | 31.90232 | 104.63170 | 33300 ft | 409 kts | 183° |
| 2026-04-24 03:47 | 31.84566 | 104.63475 | 33277 ft | 412 kts | 182° |
| 2026-04-24 03:47 | 31.78840 | 104.63786 | 33258 ft | 409 kts | 183° |
| 2026-04-24 03:48 | 31.73158 | 104.64027 | 33236 ft | 406 kts | 184° |
| 2026-04-24 03:48 | 31.67474 | 104.64251 | 33235 ft | 408 kts | 184° |
| 2026-04-24 03:49 | 31.61806 | 104.64475 | 33216 ft | 409 kts | 184° |
| 2026-04-24 03:49 | 31.56134 | 104.64700 | 33211 ft | 407 kts | 184° |
| 2026-04-24 03:50 | 31.50452 | 104.64925 | 33195 ft | 406 kts | 184° |
| 2026-04-24 03:50 | 31.44803 | 104.65148 | 33189 ft | 406 kts | 184° |
| 2026-04-24 03:51 | 31.39122 | 104.65372 | 33179 ft | 406 kts | 184° |
| 2026-04-24 03:51 | 31.33483 | 104.65595 | 33182 ft | 404 kts | 184° |
| 2026-04-24 03:52 | 31.27876 | 104.65816 | 33179 ft | 403 kts | 184° |
| 2026-04-24 03:52 | 31.22230 | 104.66037 | 33183 ft | 404 kts | 184° |
| 2026-04-24 03:53 | 31.16623 | 104.66259 | 33181 ft | 401 kts | 185° |
| 2026-04-24 03:53 | 31.11017 | 104.66478 | 33181 ft | 403 kts | 185° |
| 2026-04-24 03:54 | 31.05429 | 104.66698 | 33168 ft | 401 kts | 185° |
| 2026-04-24 03:54 | 30.99794 | 104.67275 | 33162 ft | 405 kts | 180° |
| 2026-04-24 03:55 | 30.94237 | 104.67907 | 33151 ft | 401 kts | 180° |
| 2026-04-24 03:55 | 30.88600 | 104.68538 | 33150 ft | 406 kts | 180° |
| 2026-04-24 03:56 | 30.82987 | 104.69173 | 33145 ft | 403 kts | 180° |
| 2026-04-24 03:56 | 30.77414 | 104.69802 | 33149 ft | 402 kts | 181° |
| 2026-04-24 03:57 | 30.71818 | 104.70431 | 33148 ft | 405 kts | 180° |
| 2026-04-24 03:57 | 30.66219 | 104.71063 | 33146 ft | 402 kts | 180° |
| 2026-04-24 03:58 | 30.60637 | 104.71690 | 33148 ft | 402 kts | 180° |
| 2026-04-24 03:58 | 30.55068 | 104.72315 | 33140 ft | 403 kts | 180° |
| 2026-04-24 03:59 | 30.49445 | 104.72943 | 33145 ft | 404 kts | 181° |
| 2026-04-24 03:59 | 30.43881 | 104.73563 | 33149 ft | 401 kts | 180° |
| 2026-04-24 04:00 | 30.38325 | 104.74181 | 33145 ft | 400 kts | 180° |
| 2026-04-24 04:00 | 30.32759 | 104.74801 | 33146 ft | 401 kts | 180° |
| 2026-04-24 04:01 | 30.27165 | 104.75422 | 33149 ft | 402 kts | 180° |
| 2026-04-24 04:01 | 30.21571 | 104.76043 | 33147 ft | 401 kts | 181° |
| 2026-04-24 04:02 | 30.16058 | 104.76654 | 33147 ft | 400 kts | 181° |
| 2026-04-24 04:02 | 30.10521 | 104.77268 | 33154 ft | 400 kts | 181° |
| 2026-04-24 04:03 | 30.04953 | 104.77882 | 33164 ft | 400 kts | 180° |
| 2026-04-24 04:03 | 29.99374 | 104.78500 | 33165 ft | 401 kts | 181° |
| 2026-04-24 04:04 | 29.93816 | 104.79114 | 33165 ft | 401 kts | 181° |
| 2026-04-24 04:04 | 29.88274 | 104.79726 | 33156 ft | 398 kts | 181° |
| 2026-04-24 04:05 | 29.82696 | 104.80340 | 33162 ft | 400 kts | 181° |
| 2026-04-24 04:05 | 29.77152 | 104.80952 | 33159 ft | 401 kts | 180° |
| 2026-04-24 04:06 | 29.71610 | 104.81563 | 33159 ft | 399 kts | 181° |
| 2026-04-24 04:06 | 29.66044 | 104.82174 | 33162 ft | 401 kts | 180° |
| 2026-04-24 04:07 | 29.60517 | 104.82781 | 33160 ft | 398 kts | 181° |
| 2026-04-24 04:07 | 29.54996 | 104.83386 | 33163 ft | 398 kts | 180° |
| 2026-04-24 04:08 | 29.49448 | 104.83994 | 33161 ft | 399 kts | 180° |
| 2026-04-24 04:08 | 29.43927 | 104.84598 | 33159 ft | 400 kts | 180° |
| 2026-04-24 04:09 | 29.38349 | 104.85209 | 33157 ft | 401 kts | 181° |
| 2026-04-24 04:09 | 29.32846 | 104.86164 | 33162 ft | 406 kts | 165° |
| 2026-04-24 04:10 | 29.27577 | 104.88717 | 33147 ft | 412 kts | 160° |
| 2026-04-24 04:10 | 29.22333 | 104.91345 | 33142 ft | 409 kts | 160° |
| 2026-04-24 04:11 | 29.14506 | 104.95286 | 33147 ft | 410 kts | 159° |
| 2026-04-24 04:11 | 29.09308 | 104.97909 | 33075 ft | 411 kts | 159° |
| 2026-04-24 04:12 | 29.06659 | 104.99245 | 33163 ft | 424 kts | 159° |
| 2026-04-24 04:12 | 29.03890 | 105.00639 | 33158 ft | 446 kts | 159° |
| 2026-04-24 04:12 | 29.00962 | 105.02116 | 33168 ft | 467 kts | 159° |
| 2026-04-24 04:12 | 28.97903 | 105.03657 | 33153 ft | 488 kts | 159° |
| 2026-04-24 04:13 | 28.91581 | 105.06835 | 33143 ft | 496 kts | 159° |
| 2026-04-24 04:13 | 28.85243 | 105.10008 | 33143 ft | 493 kts | 159° |
| 2026-04-24 04:14 | 28.78948 | 105.13151 | 33136 ft | 494 kts | 159° |
| 2026-04-24 04:14 | 28.72865 | 105.16694 | 33150 ft | 494 kts | 154° |
| 2026-04-24 04:15 | 28.66808 | 105.20376 | 33158 ft | 491 kts | 154° |
| 2026-04-24 04:15 | 28.60759 | 105.24039 | 33169 ft | 493 kts | 154° |
| 2026-04-24 04:16 | 28.54697 | 105.27702 | 33178 ft | 493 kts | 154° |
| 2026-04-24 04:16 | 28.48628 | 105.31365 | 33183 ft | 491 kts | 154° |
| 2026-04-24 04:17 | 28.43558 | 105.34422 | 33198 ft | 489 kts | 155° |